メインページ
METAR-TAF:

METAR-TAF

空港 :

ナッソー, バハマ

リンデン・ピンドリング国際空港

緯度: 25-03N, 経度: 077-28W, 海抜: 3m

現時点の気象観測

当レポートは17分前の23:00(UTC)に作成
無風
気温 31°C
湿度 63%
気圧 1017 hPa
視程10km以上
高度1500ftの雲はほとんどない, 積乱雲.
高度1800ftの雲は散在している, 塔状積雲.
高度22000ftの千切れ雲あり
近辺でにわか雨

METAR: MYNN 272300Z 00000KT 9999 VCSH FEW015CB SCT018TCU BKN220 31/23 A3004 RMK CB/VCSH/E STNRY TCU/N

時間: 19:17 (23:17 UTC)

予報

当レポートは6時間32分前の16:45(UTC)に作成
予報は27日の 18時(UTC)から 28日の 18時(UTC)まで有効
東/北東の風 5kt、最大15ktの突風を伴う
視程10km以上
高度1500ftの雲はほとんどない, 積乱雲.
高度1800ftの雲は散在している
近辺でにわか雨
28日の 0000時(UTC)から
変向風 2kt
視程10km以上
高度2200ftの雲は散在している

TAF: MYNN 271645Z 2718/2818 07005G15KT 9999 VCSH FEW015CB SCT018 FM280000 VRB02KT 9999 SCT022

4,000以上の空港の気象観測と天気予報(METAR報とTAF報)

利用可能な観測所は地図上に黄色い丸と赤い丸で示す。

丸の上にカーソルを重ねると観測所名を参照できる。

次にクリックすると気象観測と天気予報を参照できる。

マップの切り替え:黒色「×」印の緑ボタンをクリックして拡大、「-」印の緑ボタンをクリックして縮小、緑色の三角印をクリックして隣りの地図に切り替え


METAR-TAF: